createdAt,value
2023-04-30T00:00:25.892Z,939.92
2023-04-30T00:01:25.928Z,939.93
2023-04-30T00:02:26.008Z,939.94
2023-04-30T00:03:26.009Z,939.97
2023-04-30T00:04:25.985Z,940.00
2023-04-30T00:05:25.861Z,940.02
2023-04-30T00:06:28.027Z,940.04
2023-04-30T00:07:25.852Z,940.03
2023-04-30T00:08:25.818Z,940.00
2023-04-30T00:09:25.846Z,940.02
2023-04-30T00:10:25.846Z,940.01
2023-04-30T00:11:25.834Z,939.97
2023-04-30T00:12:26.273Z,939.98
2023-04-30T00:13:25.756Z,940.01
2023-04-30T00:14:25.816Z,939.98
2023-04-30T00:15:25.767Z,939.96
2023-04-30T00:16:25.993Z,940.01
2023-04-30T00:17:25.761Z,939.99
2023-04-30T00:18:25.697Z,940.03
2023-04-30T00:19:25.692Z,940.06
2023-04-30T00:20:25.677Z,940.05
2023-04-30T00:21:25.677Z,940.03
2023-04-30T00:22:25.707Z,940.06
2023-04-30T00:23:25.798Z,940.04
2023-04-30T00:24:25.724Z,940.07
2023-04-30T00:25:25.633Z,940.09
2023-04-30T00:26:25.633Z,940.09
2023-04-30T00:27:25.659Z,940.08
2023-04-30T00:28:25.659Z,940.11
2023-04-30T00:29:25.596Z,940.10
2023-04-30T00:30:25.616Z,940.14
2023-04-30T00:31:25.560Z,940.14
2023-04-30T00:32:25.697Z,940.13
2023-04-30T00:33:25.689Z,940.15
2023-04-30T00:34:25.555Z,940.13
2023-04-30T00:35:25.586Z,940.14
2023-04-30T00:36:25.579Z,940.19
2023-04-30T00:37:25.515Z,940.16
2023-04-30T00:38:25.541Z,940.18
2023-04-30T00:39:25.475Z,940.15
2023-04-30T00:40:25.629Z,940.18
2023-04-30T00:41:25.568Z,940.20
2023-04-30T00:42:25.461Z,940.20
2023-04-30T00:43:25.451Z,940.16
2023-04-30T00:44:25.472Z,940.18
2023-04-30T00:45:25.462Z,940.16
2023-04-30T00:46:25.444Z,940.19
2023-04-30T00:47:25.428Z,940.21
2023-04-30T00:48:25.706Z,940.17
2023-04-30T00:49:26.034Z,940.22
2023-04-30T00:50:25.382Z,940.25
2023-04-30T00:51:25.653Z,940.23
2023-04-30T00:52:25.321Z,940.24
2023-04-30T00:53:25.387Z,940.27
2023-04-30T00:54:25.657Z,940.31
2023-04-30T00:55:25.304Z,940.24
2023-04-30T00:56:25.477Z,940.28
2023-04-30T00:57:25.273Z,940.28
2023-04-30T00:58:25.439Z,940.27
2023-04-30T00:59:25.315Z,940.24
2023-04-30T01:00:25.288Z,940.24
2023-04-30T01:01:25.272Z,940.26
2023-04-30T01:02:25.272Z,940.20
2023-04-30T01:03:25.284Z,940.20
2023-04-30T01:04:25.308Z,940.20
2023-04-30T01:05:25.270Z,940.22
2023-04-30T01:06:25.300Z,940.18
2023-04-30T01:07:25.172Z,940.20
2023-04-30T01:08:25.159Z,940.20
2023-04-30T01:09:25.212Z,940.18
2023-04-30T01:10:25.164Z,940.21
2023-04-30T01:11:25.399Z,940.23
2023-04-30T01:12:25.116Z,940.23
2023-04-30T01:13:25.313Z,940.26
2023-04-30T01:14:25.159Z,940.24
2023-04-30T01:15:25.091Z,940.18
2023-04-30T01:16:25.166Z,940.27
2023-04-30T01:17:25.083Z,940.25
2023-04-30T01:18:25.173Z,940.22
2023-04-30T01:19:25.071Z,940.23
2023-04-30T01:20:25.061Z,940.23
2023-04-30T01:21:25.041Z,940.22
2023-04-30T01:22:25.121Z,940.23
2023-04-30T01:23:25.128Z,940.23
2023-04-30T01:24:25.081Z,940.23
2023-04-30T01:25:24.971Z,940.23
2023-04-30T01:26:25.039Z,940.26
2023-04-30T01:27:24.957Z,940.28
2023-04-30T01:28:24.944Z,940.23
2023-04-30T01:29:25.088Z,940.25
2023-04-30T01:30:25.090Z,940.25
2023-04-30T01:31:25.034Z,940.24
2023-04-30T01:32:25.018Z,940.25
2023-04-30T01:33:24.942Z,940.24
2023-04-30T01:34:24.908Z,940.24
2023-04-30T01:35:24.869Z,940.23
2023-04-30T01:36:24.857Z,940.19
2023-04-30T01:37:24.869Z,940.21
2023-04-30T01:38:24.875Z,940.23
2023-04-30T01:39:24.864Z,940.16
2023-04-30T01:40:24.832Z,940.19
2023-04-30T01:41:24.806Z,940.21
2023-04-30T01:42:24.783Z,940.24
2023-04-30T01:43:24.776Z,940.24
2023-04-30T01:44:24.843Z,940.23
2023-04-30T01:45:24.839Z,940.26
2023-04-30T01:46:46.285Z,940.25
2023-04-30T01:47:24.748Z,940.23
2023-04-30T01:48:24.742Z,940.29
2023-04-30T01:49:24.713Z,940.32
2023-04-30T01:50:24.742Z,940.31
2023-04-30T01:51:24.735Z,940.31
2023-04-30T01:52:24.681Z,940.32
2023-04-30T01:53:24.684Z,940.32
2023-04-30T01:54:24.667Z,940.33
2023-04-30T01:55:24.687Z,940.28
2023-04-30T01:56:24.634Z,940.34
2023-04-30T01:57:24.676Z,940.32
2023-04-30T01:58:24.646Z,940.32
2023-04-30T01:59:24.752Z,940.34
2023-04-30T02:00:24.994Z,940.35
2023-04-30T02:01:24.656Z,940.33
2023-04-30T02:02:24.760Z,940.31
2023-04-30T02:03:24.672Z,940.28
2023-04-30T02:04:24.557Z,940.27
2023-04-30T02:05:24.569Z,940.26
2023-04-30T02:06:24.612Z,940.28
2023-04-30T02:07:24.530Z,940.29
2023-04-30T02:08:24.617Z,940.29
2023-04-30T02:09:24.554Z,940.32
2023-04-30T02:10:24.499Z,940.30
2023-04-30T02:11:24.559Z,940.32
2023-04-30T02:12:24.463Z,940.30
2023-04-30T02:13:24.466Z,940.29
2023-04-30T02:14:24.446Z,940.31
2023-04-30T02:15:24.463Z,940.32
2023-04-30T02:16:29.135Z,940.30
2023-04-30T02:17:24.453Z,940.28
2023-04-30T02:18:24.448Z,940.31
2023-04-30T02:19:24.394Z,940.20
2023-04-30T02:20:24.415Z,940.21
2023-04-30T02:21:24.639Z,940.19
2023-04-30T02:22:24.370Z,940.23
2023-04-30T02:23:24.344Z,940.22
2023-04-30T02:24:24.349Z,940.25
2023-04-30T02:25:24.317Z,940.25
2023-04-30T02:26:24.356Z,940.25
2023-04-30T02:27:24.329Z,940.24
2023-04-30T02:28:24.314Z,940.21
2023-04-30T02:29:24.331Z,940.28
2023-04-30T02:30:24.290Z,940.25
2023-04-30T02:31:24.309Z,940.26
2023-04-30T02:32:24.278Z,940.26
2023-04-30T02:33:24.230Z,940.26
2023-04-30T02:34:24.273Z,940.24
2023-04-30T02:35:24.236Z,940.30
2023-04-30T02:36:24.212Z,940.26
2023-04-30T02:37:24.216Z,940.23
2023-04-30T02:38:24.203Z,940.24
2023-04-30T02:39:24.175Z,940.28
2023-04-30T02:40:24.257Z,940.25
2023-04-30T02:41:24.170Z,940.28
2023-04-30T02:42:24.136Z,940.28
2023-04-30T02:43:24.186Z,940.29
2023-04-30T02:44:24.129Z,940.29
2023-04-30T02:45:24.202Z,940.30
2023-04-30T02:46:24.330Z,940.25
2023-04-30T02:47:24.131Z,940.24
2023-04-30T02:48:24.098Z,940.25
2023-04-30T02:49:24.108Z,940.24
2023-04-30T02:50:24.072Z,940.23
2023-04-30T02:51:24.077Z,940.23
2023-04-30T02:52:24.058Z,940.27
2023-04-30T02:53:24.018Z,940.25
2023-04-30T02:54:24.068Z,940.18
2023-04-30T02:55:23.995Z,940.18
2023-04-30T02:56:24.010Z,940.17
2023-04-30T02:57:24.018Z,940.13
2023-04-30T02:58:23.983Z,940.16
2023-04-30T02:59:24.003Z,940.13
2023-04-30T03:00:23.955Z,940.10
2023-04-30T03:01:24.053Z,940.05
2023-04-30T03:02:24.033Z,940.06
2023-04-30T03:03:24.051Z,940.02
2023-04-30T03:04:23.938Z,940.01
2023-04-30T03:05:23.935Z,940.04
2023-04-30T03:06:23.999Z,940.01
2023-04-30T03:07:23.870Z,940.05
2023-04-30T03:08:23.868Z,939.92
2023-04-30T03:09:23.872Z,939.97
2023-04-30T03:10:23.903Z,939.95
2023-04-30T03:11:23.900Z,939.95
2023-04-30T03:12:23.835Z,939.99
2023-04-30T03:13:23.829Z,939.96
2023-04-30T03:14:23.814Z,940.00
2023-04-30T03:15:23.872Z,939.96
2023-04-30T03:16:23.832Z,940.02
2023-04-30T03:17:23.812Z,939.97
2023-04-30T03:18:23.774Z,940.00
2023-04-30T03:19:23.737Z,940.03
2023-04-30T03:20:23.774Z,940.06
2023-04-30T03:21:23.727Z,940.04
2023-04-30T03:22:23.750Z,940.03
2023-04-30T03:23:32.250Z,940.04
2023-04-30T03:24:23.684Z,940.10
2023-04-30T03:25:23.676Z,940.07
2023-04-30T03:26:23.720Z,940.12
2023-04-30T03:27:23.666Z,940.09
2023-04-30T03:28:23.653Z,940.11
2023-04-30T03:29:23.641Z,940.08
2023-04-30T03:30:23.653Z,940.04
2023-04-30T03:31:23.780Z,940.07
2023-04-30T03:32:23.883Z,940.09
2023-04-30T03:33:23.697Z,940.07
2023-04-30T03:34:23.631Z,940.09
2023-04-30T03:35:23.566Z,940.07
2023-04-30T03:36:23.589Z,940.09
2023-04-30T03:37:23.607Z,940.13
2023-04-30T03:38:23.586Z,940.13
2023-04-30T03:39:23.538Z,940.12
2023-04-30T03:40:23.524Z,940.16
2023-04-30T03:41:23.538Z,940.15
2023-04-30T03:42:23.644Z,940.13
2023-04-30T03:43:23.518Z,940.15
2023-04-30T03:44:23.637Z,940.13
2023-04-30T03:45:23.475Z,940.18
2023-04-30T03:46:38.286Z,940.16
2023-04-30T03:47:23.463Z,940.18
2023-04-30T03:48:23.487Z,940.19
2023-04-30T03:49:23.484Z,940.21
2023-04-30T03:50:23.411Z,940.23
2023-04-30T03:51:23.393Z,940.18
2023-04-30T03:52:23.422Z,940.21
2023-04-30T03:53:23.414Z,940.21
2023-04-30T03:54:23.417Z,940.23
2023-04-30T03:55:23.418Z,940.21
2023-04-30T03:56:23.365Z,940.19
2023-04-30T03:57:23.342Z,940.16
2023-04-30T03:58:23.357Z,940.13
2023-04-30T03:59:23.324Z,940.12
2023-04-30T04:00:23.319Z,940.17
2023-04-30T04:01:23.326Z,940.18
2023-04-30T04:02:23.460Z,940.23
2023-04-30T04:03:23.322Z,940.17
2023-04-30T04:04:23.358Z,940.17
2023-04-30T04:05:23.244Z,940.18
2023-04-30T04:06:23.317Z,940.18
2023-04-30T04:07:23.309Z,940.13
2023-04-30T04:08:23.212Z,940.18
2023-04-30T04:09:23.251Z,940.17
2023-04-30T04:10:23.253Z,940.21
2023-04-30T04:11:23.186Z,940.15
2023-04-30T04:12:23.203Z,940.17
2023-04-30T04:13:23.166Z,940.06
2023-04-30T04:14:23.185Z,940.12
2023-04-30T04:15:23.164Z,940.12
2023-04-30T04:16:23.476Z,940.13
2023-04-30T04:17:23.208Z,940.13
2023-04-30T04:18:23.115Z,940.15
2023-04-30T04:19:23.106Z,940.18
2023-04-30T04:20:23.131Z,940.23
2023-04-30T04:21:23.075Z,940.18
2023-04-30T04:22:23.109Z,940.17
2023-04-30T04:23:23.071Z,940.19
2023-04-30T04:24:23.075Z,940.22
2023-04-30T04:25:23.027Z,940.19
2023-04-30T04:26:23.076Z,940.19
2023-04-30T04:27:23.047Z,940.21
2023-04-30T04:28:23.011Z,940.22
2023-04-30T04:29:23.077Z,940.26
2023-04-30T04:30:23.088Z,940.20
2023-04-30T04:31:23.203Z,940.28
2023-04-30T04:32:23.111Z,940.25
2023-04-30T04:33:22.997Z,940.26
2023-04-30T04:34:23.060Z,940.33
2023-04-30T04:35:22.929Z,940.35
2023-04-30T04:36:22.964Z,940.31
2023-04-30T04:37:22.976Z,940.35
2023-04-30T04:38:22.910Z,940.31
2023-04-30T04:39:22.900Z,940.28
2023-04-30T04:40:22.901Z,940.29
2023-04-30T04:41:22.865Z,940.32
2023-04-30T04:42:22.978Z,940.32
2023-04-30T04:43:22.904Z,940.38
2023-04-30T04:44:22.875Z,940.37
2023-04-30T04:45:22.840Z,940.34
2023-04-30T04:46:22.856Z,940.36
2023-04-30T04:47:22.905Z,940.36
2023-04-30T04:48:22.852Z,940.39
2023-04-30T04:49:23.608Z,940.33
2023-04-30T04:50:22.820Z,940.33
2023-04-30T04:51:22.786Z,940.38
2023-04-30T04:52:22.881Z,940.39
2023-04-30T04:53:22.733Z,940.33
2023-04-30T04:54:22.742Z,940.40
2023-04-30T04:55:22.752Z,940.37
2023-04-30T04:56:22.733Z,940.34
2023-04-30T04:57:22.699Z,940.39
2023-04-30T04:58:22.806Z,940.42
2023-04-30T04:59:22.684Z,940.35
2023-04-30T05:00:22.687Z,940.32
2023-04-30T05:01:22.844Z,940.35
2023-04-30T05:02:22.824Z,940.34
2023-04-30T05:03:22.734Z,940.34
2023-04-30T05:04:23.112Z,940.35
2023-04-30T05:05:22.613Z,940.41
2023-04-30T05:06:22.789Z,940.38
2023-04-30T05:07:22.632Z,940.38
2023-04-30T05:08:22.632Z,940.39
2023-04-30T05:09:22.613Z,940.38
2023-04-30T05:10:22.556Z,940.36
2023-04-30T05:11:22.956Z,940.38
2023-04-30T05:12:22.773Z,940.26
2023-04-30T05:13:22.526Z,940.38
2023-04-30T05:14:22.592Z,940.39
2023-04-30T05:15:22.765Z,940.40
2023-04-30T05:16:27.159Z,940.38
2023-04-30T05:17:22.699Z,940.36
2023-04-30T05:18:22.504Z,940.37
2023-04-30T05:19:22.491Z,940.37
2023-04-30T05:20:22.601Z,940.36
2023-04-30T05:21:22.559Z,940.40
2023-04-30T05:22:22.477Z,940.42
2023-04-30T05:23:22.414Z,940.30
2023-04-30T05:24:22.426Z,940.32
2023-04-30T05:25:22.437Z,940.38
2023-04-30T05:26:22.421Z,940.37
2023-04-30T05:27:22.425Z,940.35
2023-04-30T05:28:22.407Z,940.32
2023-04-30T05:29:22.355Z,940.37
2023-04-30T05:30:22.356Z,940.37
2023-04-30T05:31:22.398Z,940.34
2023-04-30T05:32:22.347Z,940.39
2023-04-30T05:33:22.298Z,940.32
2023-04-30T05:34:22.387Z,940.31
2023-04-30T05:35:22.302Z,940.31
2023-04-30T05:36:22.281Z,940.27
2023-04-30T05:37:22.330Z,940.29
2023-04-30T05:38:22.245Z,940.31
2023-04-30T05:39:22.263Z,940.30
2023-04-30T05:40:22.262Z,940.29
2023-04-30T05:41:22.234Z,940.27
2023-04-30T05:42:22.260Z,940.31
2023-04-30T05:43:22.220Z,940.31
2023-04-30T05:44:22.213Z,940.27
2023-04-30T05:45:22.235Z,940.28
2023-04-30T05:46:22.339Z,940.31
2023-04-30T05:47:22.235Z,940.26
2023-04-30T05:48:22.207Z,940.22
2023-04-30T05:49:22.287Z,940.24
2023-04-30T05:50:22.203Z,940.28
2023-04-30T05:51:22.562Z,940.26
2023-04-30T05:52:22.116Z,940.23
2023-04-30T05:53:22.103Z,940.25
2023-04-30T05:54:22.067Z,940.27
2023-04-30T05:55:22.160Z,940.21
2023-04-30T05:56:22.076Z,940.23
2023-04-30T05:57:22.483Z,940.21
2023-04-30T05:58:22.029Z,940.23
2023-04-30T05:59:22.118Z,940.27
2023-04-30T06:00:22.016Z,940.23
2023-04-30T06:01:22.135Z,940.26
2023-04-30T06:02:22.086Z,940.22
2023-04-30T06:03:22.130Z,940.17
2023-04-30T06:04:22.015Z,940.19
2023-04-30T06:05:22.239Z,940.24
2023-04-30T06:06:22.049Z,940.15
2023-04-30T06:07:22.546Z,940.16
2023-04-30T06:08:21.936Z,940.20
2023-04-30T06:09:21.989Z,940.22
2023-04-30T06:10:21.904Z,940.15
2023-04-30T06:11:21.932Z,940.17
2023-04-30T06:12:21.968Z,940.17
2023-04-30T06:13:21.874Z,940.13
2023-04-30T06:14:21.900Z,940.12
2023-04-30T06:15:21.849Z,940.14
2023-04-30T06:16:21.915Z,940.11
2023-04-30T06:17:21.896Z,940.17
2023-04-30T06:18:22.173Z,940.12
2023-04-30T06:19:21.912Z,940.10
2023-04-30T06:20:21.942Z,940.07
2023-04-30T06:21:22.096Z,940.11
2023-04-30T06:22:21.876Z,940.09
2023-04-30T06:23:21.807Z,940.12
2023-04-30T06:24:21.752Z,940.12
2023-04-30T06:25:21.853Z,940.15
2023-04-30T06:26:21.739Z,940.16
2023-04-30T06:27:21.802Z,940.14
2023-04-30T06:28:21.711Z,940.08
2023-04-30T06:29:21.730Z,940.14
2023-04-30T06:30:22.104Z,940.08
2023-04-30T06:31:21.749Z,940.08
2023-04-30T06:32:21.674Z,940.07
2023-04-30T06:33:22.044Z,940.07
2023-04-30T06:34:22.193Z,940.05
2023-04-30T06:35:21.647Z,940.04
2023-04-30T06:36:21.684Z,940.08
2023-04-30T06:37:21.727Z,940.10
2023-04-30T06:38:21.612Z,940.07
2023-04-30T06:39:21.602Z,940.05
2023-04-30T06:40:21.698Z,940.05
2023-04-30T06:41:21.584Z,940.02
2023-04-30T06:42:21.625Z,940.06
2023-04-30T06:43:21.545Z,940.09
2023-04-30T06:44:21.549Z,940.11
2023-04-30T06:45:21.552Z,940.16
2023-04-30T06:46:21.616Z,940.09
2023-04-30T06:47:21.598Z,940.12
2023-04-30T06:48:21.579Z,940.15
2023-04-30T06:49:21.508Z,940.13
2023-04-30T06:50:21.568Z,940.12
2023-04-30T06:51:21.666Z,940.09
2023-04-30T06:52:21.679Z,940.07
2023-04-30T06:53:21.558Z,940.09
2023-04-30T06:54:21.459Z,940.08
2023-04-30T06:55:21.449Z,940.03
2023-04-30T06:56:21.408Z,940.08
2023-04-30T06:57:21.413Z,940.07
2023-04-30T06:58:21.863Z,940.10
2023-04-30T06:59:21.410Z,940.10
2023-04-30T07:00:21.490Z,940.15
2023-04-30T07:01:21.402Z,940.12
2023-04-30T07:02:22.150Z,940.04
2023-04-30T07:03:21.702Z,940.09
2023-04-30T07:04:21.320Z,940.04
2023-04-30T07:05:21.417Z,940.02
2023-04-30T07:06:21.391Z,940.05
2023-04-30T07:07:21.293Z,940.04
2023-04-30T07:08:21.441Z,939.91
2023-04-30T07:09:21.738Z,940.04
2023-04-30T07:10:21.423Z,940.04
2023-04-30T07:11:21.316Z,939.93
2023-04-30T07:12:21.278Z,939.98
2023-04-30T07:13:21.285Z,940.04
2023-04-30T07:14:21.283Z,940.02
2023-04-30T07:15:21.203Z,939.94
2023-04-30T07:16:42.187Z,939.92
2023-04-30T07:17:21.214Z,939.85
2023-04-30T07:18:21.190Z,939.86
2023-04-30T07:19:21.194Z,939.85
2023-04-30T07:20:21.147Z,939.81
2023-04-30T07:21:21.162Z,939.82
2023-04-30T07:22:21.228Z,939.77
2023-04-30T07:23:21.194Z,939.77
2023-04-30T07:24:21.253Z,939.73
2023-04-30T07:25:21.173Z,939.73
2023-04-30T07:26:21.105Z,939.72
2023-04-30T07:27:21.479Z,939.72
2023-04-30T07:28:21.065Z,939.64
2023-04-30T07:29:21.052Z,939.63
2023-04-30T07:30:22.945Z,939.65
2023-04-30T07:31:21.054Z,939.66
2023-04-30T07:32:21.184Z,939.53
2023-04-30T07:33:21.552Z,939.61
2023-04-30T07:34:21.341Z,939.62
2023-04-30T07:35:21.110Z,939.59
2023-04-30T07:36:21.029Z,939.59
2023-04-30T07:37:21.092Z,939.52
2023-04-30T07:38:21.262Z,939.52
2023-04-30T07:39:21.060Z,939.43
2023-04-30T07:40:29.057Z,939.50
2023-04-30T07:41:21.933Z,939.47
2023-04-30T07:42:20.963Z,939.44
2023-04-30T07:43:20.915Z,939.45
2023-04-30T07:44:20.995Z,939.35
2023-04-30T07:45:20.912Z,939.40
2023-04-30T07:46:20.943Z,939.38
2023-04-30T07:47:20.888Z,939.38
2023-04-30T07:48:20.904Z,939.39
2023-04-30T07:49:21.066Z,939.41
2023-04-30T07:50:20.855Z,939.36
2023-04-30T07:51:20.839Z,939.34
2023-04-30T07:52:20.815Z,939.30
2023-04-30T07:53:20.788Z,939.35
2023-04-30T07:54:20.807Z,939.37
2023-04-30T07:55:20.860Z,939.41
2023-04-30T07:56:20.842Z,939.32
2023-04-30T07:57:20.842Z,939.41
2023-04-30T07:58:20.741Z,939.42
2023-04-30T07:59:20.743Z,939.33
2023-04-30T08:00:20.742Z,939.35
2023-04-30T08:01:20.733Z,939.43
2023-04-30T08:02:20.796Z,939.41
2023-04-30T08:03:20.860Z,939.42
2023-04-30T08:04:20.812Z,939.36
2023-04-30T08:05:20.699Z,939.41
2023-04-30T08:06:20.750Z,939.28
2023-04-30T08:07:20.686Z,939.40
2023-04-30T08:08:20.656Z,939.36
2023-04-30T08:09:20.642Z,939.36
2023-04-30T08:10:20.715Z,939.32
2023-04-30T08:11:20.598Z,939.34
2023-04-30T08:12:20.608Z,939.34
2023-04-30T08:13:20.582Z,939.33
2023-04-30T08:14:20.608Z,939.36
2023-04-30T08:15:20.790Z,939.41
2023-04-30T08:16:20.598Z,939.35
2023-04-30T08:17:20.529Z,939.28
2023-04-30T08:18:20.550Z,939.37
2023-04-30T08:19:20.528Z,939.40
2023-04-30T08:20:20.598Z,939.41
2023-04-30T08:21:20.702Z,939.40
2023-04-30T08:22:20.484Z,939.46
2023-04-30T08:23:20.483Z,939.35
2023-04-30T08:24:27.996Z,939.37
2023-04-30T08:25:20.503Z,939.38
2023-04-30T08:26:20.479Z,939.38
2023-04-30T08:27:20.447Z,939.39
2023-04-30T08:28:20.487Z,939.42
2023-04-30T08:29:20.426Z,939.38
2023-04-30T08:30:20.450Z,939.36
2023-04-30T08:31:20.721Z,939.39
2023-04-30T08:32:20.437Z,939.44
2023-04-30T08:33:20.431Z,939.36
2023-04-30T08:34:20.435Z,939.53
2023-04-30T08:35:20.343Z,939.40
2023-04-30T08:36:20.380Z,939.55
2023-04-30T08:37:20.325Z,939.52
2023-04-30T08:38:20.370Z,939.45
2023-04-30T08:39:20.368Z,939.36
2023-04-30T08:40:20.925Z,939.45
2023-04-30T08:41:20.421Z,939.19
2023-04-30T08:42:20.418Z,939.21
2023-04-30T08:43:20.380Z,939.18
2023-04-30T08:44:20.244Z,939.20
2023-04-30T08:45:20.237Z,939.23
2023-04-30T08:46:20.321Z,939.10
2023-04-30T08:47:20.333Z,939.19
2023-04-30T08:48:20.414Z,939.23
2023-04-30T08:49:20.216Z,939.21
2023-04-30T08:50:20.746Z,939.24
2023-04-30T08:51:20.237Z,939.31
2023-04-30T08:52:20.153Z,939.23
2023-04-30T08:53:20.185Z,939.27
2023-04-30T08:54:20.163Z,939.29
2023-04-30T08:55:20.154Z,939.32
2023-04-30T08:56:20.132Z,939.19
2023-04-30T08:57:20.136Z,939.26
2023-04-30T08:58:20.138Z,939.27
2023-04-30T08:59:20.089Z,939.25
2023-04-30T09:00:20.069Z,939.22
2023-04-30T09:01:20.132Z,939.24
2023-04-30T09:02:20.458Z,939.23
2023-04-30T09:03:20.347Z,939.29
2023-04-30T09:04:20.120Z,939.29
2023-04-30T09:05:20.043Z,939.29
2023-04-30T09:06:20.087Z,939.29
2023-04-30T09:07:20.041Z,939.32
2023-04-30T09:08:20.076Z,939.32
2023-04-30T09:09:19.995Z,939.32
2023-04-30T09:10:20.030Z,939.34
2023-04-30T09:11:19.987Z,939.34
2023-04-30T09:12:20.528Z,939.38
2023-04-30T09:13:19.943Z,939.44
2023-04-30T09:14:19.972Z,939.39
2023-04-30T09:15:19.920Z,939.38
2023-04-30T09:16:19.991Z,939.39
2023-04-30T09:17:19.953Z,939.40
2023-04-30T09:18:19.953Z,939.45
2023-04-30T09:19:19.954Z,939.46
2023-04-30T09:20:19.848Z,939.43
2023-04-30T09:21:19.868Z,939.43
2023-04-30T09:22:19.868Z,939.42
2023-04-30T09:23:19.895Z,939.38
2023-04-30T09:24:19.990Z,939.45
2023-04-30T09:25:19.852Z,939.42
2023-04-30T09:26:20.145Z,939.39
2023-04-30T09:27:19.948Z,939.41
2023-04-30T09:28:19.767Z,939.45
2023-04-30T09:29:19.815Z,939.45
2023-04-30T09:30:19.884Z,939.33
2023-04-30T09:31:19.780Z,939.39
2023-04-30T09:32:19.747Z,939.43
2023-04-30T09:33:19.720Z,939.43
2023-04-30T09:34:20.691Z,939.40
2023-04-30T09:35:19.729Z,939.33
2023-04-30T09:36:19.724Z,939.38
2023-04-30T09:37:19.679Z,939.39
2023-04-30T09:38:19.750Z,939.35
2023-04-30T09:39:19.700Z,939.27
2023-04-30T09:40:19.648Z,939.35
2023-04-30T09:41:19.748Z,939.30
2023-04-30T09:42:19.775Z,939.32
2023-04-30T09:43:19.635Z,939.32
2023-04-30T09:44:19.622Z,939.34
2023-04-30T09:45:19.612Z,939.39
2023-04-30T09:46:19.720Z,939.43
2023-04-30T09:47:19.803Z,939.35
2023-04-30T09:48:19.550Z,939.37
2023-04-30T09:49:19.549Z,939.31
2023-04-30T09:50:19.568Z,939.32
2023-04-30T09:51:19.520Z,939.32
2023-04-30T09:52:19.524Z,939.36
2023-04-30T09:53:19.570Z,939.36
2023-04-30T09:54:19.715Z,939.45
2023-04-30T09:55:19.521Z,939.36
2023-04-30T09:56:19.834Z,939.36
2023-04-30T09:57:19.474Z,939.42
2023-04-30T09:58:19.502Z,939.45
2023-04-30T09:59:19.454Z,939.29
2023-04-30T10:00:19.441Z,939.43
2023-04-30T10:01:19.520Z,939.38
2023-04-30T10:02:19.450Z,939.31
2023-04-30T10:03:19.404Z,939.32
2023-04-30T10:04:19.510Z,939.33
2023-04-30T10:05:19.427Z,939.32
2023-04-30T10:06:19.495Z,939.27
2023-04-30T10:07:21.568Z,939.26
2023-04-30T10:08:19.356Z,939.32
2023-04-30T10:09:19.378Z,939.22
2023-04-30T10:10:19.372Z,939.28
2023-04-30T10:11:19.339Z,939.29
2023-04-30T10:12:19.320Z,939.31
2023-04-30T10:13:19.280Z,939.23
2023-04-30T10:14:19.272Z,939.20
2023-04-30T10:15:19.335Z,939.21
2023-04-30T10:16:19.379Z,939.17
2023-04-30T10:17:19.273Z,939.20
2023-04-30T10:18:19.249Z,939.18
2023-04-30T10:19:19.220Z,939.12
2023-04-30T10:20:19.238Z,939.19
2023-04-30T10:21:19.305Z,939.20
2023-04-30T10:22:19.181Z,939.08
2023-04-30T10:23:19.185Z,939.07
2023-04-30T10:24:19.172Z,939.05
2023-04-30T10:25:19.156Z,938.99
2023-04-30T10:26:19.152Z,938.99
2023-04-30T10:27:19.439Z,938.94
2023-04-30T10:28:19.314Z,939.06
2023-04-30T10:29:19.164Z,939.11
2023-04-30T10:30:19.131Z,939.15
2023-04-30T10:31:19.132Z,939.11
2023-04-30T10:32:19.201Z,939.02
2023-04-30T10:33:19.116Z,939.10
2023-04-30T10:34:19.080Z,939.05
2023-04-30T10:35:19.064Z,938.87
2023-04-30T10:36:19.160Z,938.94
2023-04-30T10:37:19.098Z,938.95
2023-04-30T10:38:19.063Z,938.88
2023-04-30T10:39:19.017Z,938.79
2023-04-30T10:40:19.041Z,938.82
2023-04-30T10:41:18.987Z,938.85
2023-04-30T10:42:18.975Z,938.87
2023-04-30T10:43:19.058Z,938.88
2023-04-30T10:44:19.037Z,938.85
2023-04-30T10:45:18.937Z,938.90
2023-04-30T10:46:23.760Z,938.83
2023-04-30T10:47:18.976Z,938.89
2023-04-30T10:48:19.017Z,938.81
2023-04-30T10:49:18.944Z,938.99
2023-04-30T10:50:18.914Z,938.83
2023-04-30T10:51:18.889Z,938.89
2023-04-30T10:52:18.881Z,938.89
2023-04-30T10:53:18.904Z,938.87
2023-04-30T10:54:18.916Z,938.88
2023-04-30T10:55:18.836Z,938.82
2023-04-30T10:56:18.882Z,938.76
2023-04-30T10:57:18.881Z,938.86
2023-04-30T10:58:18.805Z,938.87
2023-04-30T10:59:18.822Z,938.88
2023-04-30T11:00:18.821Z,938.61
2023-04-30T11:01:18.798Z,938.81
2023-04-30T11:02:18.956Z,938.94
2023-04-30T11:03:18.843Z,938.73
2023-04-30T11:04:18.747Z,938.80
2023-04-30T11:05:18.995Z,938.85
2023-04-30T11:06:19.026Z,938.75
2023-04-30T11:07:18.749Z,938.74
2023-04-30T11:08:18.983Z,938.84
2023-04-30T11:09:18.698Z,938.80
2023-04-30T11:10:18.766Z,938.74
2023-04-30T11:11:18.707Z,938.76
2023-04-30T11:12:18.768Z,938.78
2023-04-30T11:13:18.751Z,938.70
2023-04-30T11:14:18.635Z,938.69
2023-04-30T11:15:18.630Z,938.65
2023-04-30T11:16:18.625Z,938.64
2023-04-30T11:17:18.762Z,938.65
2023-04-30T11:18:18.682Z,938.62
2023-04-30T11:19:18.647Z,938.84
2023-04-30T11:20:18.610Z,938.79
2023-04-30T11:21:18.593Z,938.78
2023-04-30T11:22:18.601Z,938.72
2023-04-30T11:23:25.247Z,938.57
2023-04-30T11:24:19.544Z,938.60
2023-04-30T11:25:18.616Z,938.60
2023-04-30T11:26:18.594Z,938.59
2023-04-30T11:27:18.575Z,938.52
2023-04-30T11:28:18.498Z,938.55
2023-04-30T11:29:18.505Z,938.51
2023-04-30T11:30:18.631Z,938.43
2023-04-30T11:31:18.473Z,938.44
2023-04-30T11:32:18.491Z,938.49
2023-04-30T11:33:18.486Z,938.55
2023-04-30T11:34:18.475Z,938.38
2023-04-30T11:35:18.431Z,938.43
2023-04-30T11:36:18.401Z,938.33
2023-04-30T11:37:18.449Z,938.33
2023-04-30T11:38:18.448Z,938.33
2023-04-30T11:39:18.758Z,938.34
2023-04-30T11:40:18.385Z,938.38
2023-04-30T11:41:18.393Z,938.36
2023-04-30T11:42:18.390Z,938.45
2023-04-30T11:43:18.821Z,938.38
2023-04-30T11:44:18.374Z,938.50
2023-04-30T11:45:18.300Z,938.32
2023-04-30T11:46:25.794Z,938.57
2023-04-30T11:47:18.293Z,938.44
2023-04-30T11:48:18.293Z,938.34
2023-04-30T11:49:18.294Z,938.40
2023-04-30T11:50:18.327Z,938.48
2023-04-30T11:51:18.244Z,938.56
2023-04-30T11:52:18.368Z,938.48
2023-04-30T11:53:18.254Z,938.40
2023-04-30T11:54:18.540Z,938.49
2023-04-30T11:55:18.252Z,938.26
2023-04-30T11:56:18.207Z,938.32
2023-04-30T11:57:18.274Z,938.32
2023-04-30T11:58:18.383Z,938.23
2023-04-30T11:59:18.179Z,938.40
2023-04-30T12:00:18.312Z,938.32
2023-04-30T12:01:18.194Z,938.49
2023-04-30T12:02:18.229Z,938.25
2023-04-30T12:03:18.250Z,938.35
2023-04-30T12:04:18.230Z,938.35
2023-04-30T12:05:18.146Z,938.23
2023-04-30T12:06:18.098Z,938.12
2023-04-30T12:07:18.106Z,938.14
2023-04-30T12:08:18.065Z,938.24
2023-04-30T12:09:18.080Z,938.16
2023-04-30T12:10:18.055Z,938.20
2023-04-30T12:11:18.157Z,938.18
2023-04-30T12:12:18.194Z,938.14
2023-04-30T12:13:18.070Z,938.05
2023-04-30T12:14:17.997Z,937.96
2023-04-30T12:15:17.990Z,937.90
2023-04-30T12:16:18.050Z,938.14
2023-04-30T12:17:18.098Z,938.08
2023-04-30T12:18:18.083Z,938.14
2023-04-30T12:19:18.032Z,938.02
2023-04-30T12:20:17.970Z,937.90
2023-04-30T12:21:17.975Z,937.95
2023-04-30T12:22:17.950Z,937.85
2023-04-30T12:23:17.895Z,937.93
2023-04-30T12:24:17.939Z,937.92
2023-04-30T12:25:17.914Z,937.90
2023-04-30T12:26:17.938Z,937.89
2023-04-30T12:27:17.983Z,937.81
2023-04-30T12:28:17.955Z,937.84